F/V Vivaldi — FQLH — position and weather

sailwx.info

Track history (hours):
 
Tides and Currents Weather Stations Pressure Air Temp Water Temp Dewpoint Dewpoint Depression Visibility Wind Speed Wind Dir Waves Ship Positions

F/V Vivaldi

Last reported at 2017-Sep-27 13:00 UTC. Time now 2017-Oct-18 02:26 UTC.
Position N 43°55' W 005°25'.
Warning: this ship's position is 20 days out of date.

Length 23 m.

Type: Fishing. MMSI: 227981000.

Date/timePositionNaut miles runAvg speedWind from/ knotsBaromVisibWave heightAir tempDewpointWater temp
2017-Sep-27 13:00N 43°55' W 005°25'510.4
2017-Sep-27 12:30N 43°55' W 005°18'510.4
2017-Sep-27 12:00N 43°54' W 005°11'510.3
2017-Sep-27 11:30N 43°54' W 005°04'610.3
2017-Sep-27 10:54N 43°53' W 004°55'410.4
2017-Sep-27 10:30N 43°52' W 004°50'510.5
2017-Sep-27 10:00N 43°52' W 004°42'510.3
2017-Sep-27 09:30N 43°51' W 004°35'710.3
2017-Sep-27 08:51N 43°51' W 004°26'410.3
2017-Sep-27 08:27N 43°50' W 004°20'3210.2
2017-Sep-27 05:19N 43°46' W 003°36'710.0
2017-Sep-27 04:36N 43°45' W 003°27'110.2
2017-Sep-27 04:29N 43°45' W 003°25'63 9.8
2017-Sep-26 22:07N 43°25' W 002°03'1 9.6
2017-Sep-26 22:00N 43°24' W 002°02'4 8.3
2017-Sep-26 21:30N 43°22' W 001°58'3 4.6
2017-Sep-26 20:54N 43°19' W 001°55'0 0.0
2017-Sep-26 20:30N 43°19' W 001°55'32 0.7
2017-Sep-24 19:56N 43°29' W 002°38'4 9.7
2017-Sep-24 19:30N 43°30' W 002°44'5 9.8
2017-Sep-24 19:00N 43°32' W 002°50'5 9.7
2017-Sep-24 18:31N 43°33' W 002°56'5 9.9
2017-Sep-24 18:01N 43°34' W 003°03'510.0
2017-Sep-24 17:31N 43°35' W 003°10'510.1
2017-Sep-24 17:00N 43°37' W 003°16'510.3
2017-Sep-24 16:29N 43°38' W 003°24'7510.0
2017-Sep-24 09:02N 43°56' W 005°04'110.0
2017-Sep-24 08:55N 43°56' W 005°06'  
2017-Sep-19 08:03N 43°41' W 007°36'  
Track history (hours):
 
Tides and Currents Weather Stations Pressure Air Temp Water Temp Dewpoint Dewpoint Depression Visibility Wind Speed Wind Dir Waves Ship Positions

F/V Vivaldi

Last reported at 2017-Sep-27 13:00 UTC. Time now 2017-Oct-18 02:26 UTC.
Position N 43°55' W 005°25'.
Warning: this ship's position is 20 days out of date.

Length 23 m.

Type: Fishing. MMSI: 227981000.

Date/timePositionNaut miles runAvg speedWind from/ knotsBaromVisibWave heightAir tempDewpointWater temp
2017-Sep-27 13:00N 43°55' W 005°25'510.4
2017-Sep-27 12:30N 43°55' W 005°18'510.4
2017-Sep-27 12:00N 43°54' W 005°11'510.3
2017-Sep-27 11:30N 43°54' W 005°04'610.3
2017-Sep-27 10:54N 43°53' W 004°55'410.4
2017-Sep-27 10:30N 43°52' W 004°50'510.5
2017-Sep-27 10:00N 43°52' W 004°42'510.3
2017-Sep-27 09:30N 43°51' W 004°35'710.3
2017-Sep-27 08:51N 43°51' W 004°26'410.3
2017-Sep-27 08:27N 43°50' W 004°20'3210.2
2017-Sep-27 05:19N 43°46' W 003°36'710.0
2017-Sep-27 04:36N 43°45' W 003°27'110.2
2017-Sep-27 04:29N 43°45' W 003°25'63 9.8
2017-Sep-26 22:07N 43°25' W 002°03'1 9.6
2017-Sep-26 22:00N 43°24' W 002°02'4 8.3
2017-Sep-26 21:30N 43°22' W 001°58'3 4.6
2017-Sep-26 20:54N 43°19' W 001°55'0 0.0
2017-Sep-26 20:30N 43°19' W 001°55'32 0.7
2017-Sep-24 19:56N 43°29' W 002°38'4 9.7
2017-Sep-24 19:30N 43°30' W 002°44'5 9.8
2017-Sep-24 19:00N 43°32' W 002°50'5 9.7
2017-Sep-24 18:31N 43°33' W 002°56'5 9.9
2017-Sep-24 18:01N 43°34' W 003°03'510.0
2017-Sep-24 17:31N 43°35' W 003°10'510.1
2017-Sep-24 17:00N 43°37' W 003°16'510.3
2017-Sep-24 16:29N 43°38' W 003°24'7510.0
2017-Sep-24 09:02N 43°56' W 005°04'110.0
2017-Sep-24 08:55N 43°56' W 005°06'  
2017-Sep-19 08:03N 43°41' W 007°36'  

Dump ship's entire track history